Time;durP1;ratioP1;P1;durP2;ratioP2;P2;SDS_P1;SDS_P2;PMS_P1;PMS_P2;Temp;Humidity;BMP_temperature;BMP_pressure;BME280_temperature;BME280_humidity;BME280_pressure;Samples;Min_cycle;Max_cycle;Signal;HPM_P1;HPM_P2
2021/09/18 00:01:44;;;;;;;1.57;1.10;;;23.20;57.50;;;;;;5033333;28;20760;-64
2021/09/18 00:04:09;;;;;;;1.40;0.80;;;23.20;57.40;;;;;;5033267;28;20426;-65
2021/09/18 00:06:36;;;;;;;1.58;0.88;;;23.10;57.50;;;;;;5032528;28;20406;-64
2021/09/18 00:09:02;;;;;;;2.20;0.93;;;23.10;57.40;;;;;;5033134;28;20816;-65
2021/09/18 00:11:28;;;;;;;1.40;0.90;;;23.10;57.40;;;;;;5032719;28;20383;-64
2021/09/18 00:13:53;;;;;;;1.50;0.85;;;23.10;57.40;;;;;;5032662;28;20452;-65
2021/09/18 00:16:19;;;;;;;1.50;0.80;;;23.10;57.40;;;;;;5031893;28;20387;-65
2021/09/18 00:18:45;;;;;;;1.30;0.95;;;23.10;57.30;;;;;;5032580;28;20419;-64
2021/09/18 00:21:10;;;;;;;1.15;0.85;;;23.10;57.40;;;;;;5032068;28;20379;-65
2021/09/18 00:23:36;;;;;;;1.50;0.90;;;23.10;57.40;;;;;;5032554;28;20399;-65
2021/09/18 00:26:02;;;;;;;1.30;0.82;;;23.10;57.20;;;;;;5031592;28;20410;-65
2021/09/18 00:28:27;;;;;;;1.30;1.00;;;23.10;57.30;;;;;;5032049;28;20391;-64
2021/09/18 00:30:53;;;;;;;1.63;0.80;;;23.10;57.10;;;;;;5032712;28;20916;-65
2021/09/18 00:33:19;;;;;;;1.30;1.00;;;23.10;57.20;;;;;;5032457;28;20388;-65
2021/09/18 00:35:45;;;;;;;1.27;0.90;;;23.10;57.20;;;;;;5032616;28;20445;-64
2021/09/18 00:38:10;;;;;;;1.40;0.83;;;23.10;57.30;;;;;;5031940;28;20415;-64
2021/09/18 00:40:36;;;;;;;2.00;1.00;;;23.00;57.10;;;;;;5031597;28;20398;-64
2021/09/18 00:43:02;;;;;;;1.42;1.08;;;23.10;57.00;;;;;;5032623;28;20394;-65
2021/09/18 00:45:27;;;;;;;1.60;1.10;;;23.00;57.20;;;;;;5032402;28;20395;-64
2021/09/18 00:47:53;;;;;;;1.20;0.83;;;23.00;57.10;;;;;;5031796;28;20462;-64
2021/09/18 00:50:19;;;;;;;1.40;0.90;;;23.00;57.20;;;;;;5031604;28;20422;-64
2021/09/18 00:52:45;;;;;;;1.60;0.90;;;23.00;57.20;;;;;;5032450;28;20427;-64
2021/09/18 00:55:12;;;;;;;1.80;1.00;;;23.00;57.30;;;;;;5030837;28;20449;-65
2021/09/18 00:57:39;;;;;;;1.10;0.90;;;23.00;57.20;;;;;;5031662;28;20407;-66
2021/09/18 01:00:06;;;;;;;1.40;0.90;;;23.00;57.40;;;;;;5032130;28;20402;-64
2021/09/18 01:02:32;;;;;;;1.80;0.90;;;23.00;57.40;;;;;;5031296;28;20401;-64
2021/09/18 01:04:57;;;;;;;1.58;1.10;;;23.00;57.30;;;;;;5031538;28;20757;-64
2021/09/18 01:07:23;;;;;;;1.40;1.02;;;23.00;57.30;;;;;;5030035;28;20407;-65
2021/09/18 01:09:50;;;;;;;1.87;1.00;;;23.00;57.20;;;;;;5031652;28;20490;-65
2021/09/18 01:12:16;;;;;;;1.20;0.90;;;23.00;57.20;;;;;;5031875;28;20387;-64
2021/09/18 01:14:46;;;;;;;1.25;0.90;;;23.00;57.30;;;;;;5031217;28;20775;-64
2021/09/18 01:17:12;;;;;;;1.40;0.90;;;23.00;57.20;;;;;;5031307;28;20395;-65
2021/09/18 01:19:37;;;;;;;1.08;0.80;;;23.00;57.20;;;;;;5032051;28;20456;-64
2021/09/18 01:22:05;;;;;;;1.20;0.83;;;23.00;57.20;;;;;;5031228;28;20403;-64
2021/09/18 01:24:31;;;;;;;1.40;0.90;;;23.00;57.20;;;;;;5031525;28;20428;-64
2021/09/18 01:26:57;;;;;;;1.50;1.10;;;22.90;57.20;;;;;;5030602;28;20465;-64
2021/09/18 01:29:23;;;;;;;1.60;1.00;;;23.00;57.30;;;;;;5031943;28;20458;-64
2021/09/18 01:31:48;;;;;;;1.75;1.00;;;22.90;57.10;;;;;;5031871;28;20398;-64
2021/09/18 01:34:19;;;;;;;1.17;0.90;;;22.90;57.20;;;;;;5031710;28;20407;-64
2021/09/18 01:36:46;;;;;;;1.40;1.10;;;22.90;57.30;;;;;;5031318;28;20410;-65
2021/09/18 01:39:13;;;;;;;1.07;0.80;;;23.00;57.30;;;;;;5030100;28;20501;-64
2021/09/18 01:41:40;;;;;;;1.35;0.90;;;22.90;56.80;;;;;;5031562;28;20450;-64
2021/09/18 01:44:06;;;;;;;1.50;0.90;;;22.90;57.00;;;;;;5031096;28;20395;-64
2021/09/18 01:46:32;;;;;;;1.30;0.90;;;22.90;57.00;;;;;;5030941;28;20397;-65
2021/09/18 01:48:57;;;;;;;1.38;1.08;;;22.90;57.20;;;;;;5031368;28;20402;-64
2021/09/18 01:51:24;;;;;;;1.60;1.10;;;22.90;57.10;;;;;;5031366;28;20922;-64
2021/09/18 01:53:49;;;;;;;1.90;0.90;;;22.90;57.00;;;;;;5031529;28;20433;-64
2021/09/18 01:56:15;;;;;;;1.20;0.93;;;22.90;57.20;;;;;;5029912;28;20411;-65
2021/09/18 01:58:41;;;;;;;1.20;0.90;;;22.90;57.00;;;;;;5031122;28;20422;-65
2021/09/18 02:01:07;;;;;;;1.20;0.88;;;22.90;57.20;;;;;;5031299;28;20390;-64
2021/09/18 02:03:34;;;;;;;1.20;0.90;;;22.90;56.80;;;;;;5031384;28;20387;-65
2021/09/18 02:06:00;;;;;;;1.40;0.90;;;22.90;57.00;;;;;;5031061;28;20383;-65
2021/09/18 02:08:27;;;;;;;1.10;0.90;;;22.90;57.20;;;;;;5030775;28;20410;-65
2021/09/18 02:10:54;;;;;;;1.30;0.90;;;22.90;57.00;;;;;;5031363;28;20391;-65
2021/09/18 02:13:21;;;;;;;1.10;0.83;;;22.80;56.90;;;;;;5031078;28;20395;-64
2021/09/18 02:15:47;;;;;;;1.20;0.90;;;22.80;57.10;;;;;;5031045;28;20395;-64
2021/09/18 02:18:13;;;;;;;1.10;0.90;;;22.90;57.00;;;;;;5031030;28;20915;-64
2021/09/18 02:20:40;;;;;;;1.10;0.80;;;22.80;57.40;;;;;;5030785;28;20394;-64
2021/09/18 02:23:07;;;;;;;2.50;1.00;;;22.80;57.10;;;;;;5031034;28;20474;-64
2021/09/18 02:25:33;;;;;;;1.45;0.90;;;22.90;56.90;;;;;;5030925;28;20422;-64
2021/09/18 02:27:58;;;;;;;1.00;0.80;;;22.90;56.80;;;;;;5030960;28;20460;-65
2021/09/18 02:30:27;;;;;;;1.25;0.90;;;22.80;56.60;;;;;;5029391;28;20465;-65
2021/09/18 02:32:54;;;;;;;1.50;0.85;;;22.80;56.70;;;;;;5030998;28;20390;-64
2021/09/18 02:35:22;;;;;;;1.33;1.08;;;22.80;56.70;;;;;;5030913;28;20477;-64
2021/09/18 02:37:51;;;;;;;1.92;0.90;;;22.80;56.70;;;;;;5030930;28;20419;-65
2021/09/18 02:40:18;;;;;;;1.30;1.00;;;22.80;56.80;;;;;;5030912;28;20390;-64
2021/09/18 02:42:47;;;;;;;1.30;0.90;;;22.80;56.60;;;;;;5030738;28;20392;-64
2021/09/18 02:45:13;;;;;;;1.40;1.00;;;22.80;56.40;;;;;;5030840;28;20418;-64
2021/09/18 02:47:38;;;;;;;1.65;1.00;;;22.80;56.80;;;;;;5030906;28;20872;-64
2021/09/18 02:50:07;;;;;;;2.25;1.30;;;22.80;56.70;;;;;;5030796;28;20421;-65
2021/09/18 02:52:32;;;;;;;2.03;1.00;;;22.80;56.40;;;;;;5029779;28;20483;-64
2021/09/18 02:54:58;;;;;;;1.60;0.90;;;22.80;56.60;;;;;;5030584;28;20478;-65
2021/09/18 02:57:24;;;;;;;1.23;0.93;;;22.80;56.50;;;;;;5033560;28;20407;-64
2021/09/18 02:59:50;;;;;;;1.17;0.95;;;22.80;56.90;;;;;;5034597;28;20468;-65
2021/09/18 03:02:16;;;;;;;1.20;1.00;;;22.80;56.70;;;;;;5034707;28;20442;-64
2021/09/18 03:04:42;;;;;;;1.55;1.00;;;22.80;56.40;;;;;;5033815;28;20877;-64
2021/09/18 03:07:08;;;;;;;1.40;0.90;;;22.80;56.70;;;;;;5033901;28;20414;-64
2021/09/18 03:09:33;;;;;;;1.20;1.00;;;22.80;56.70;;;;;;5034418;28;20427;-64
2021/09/18 03:11:59;;;;;;;1.45;1.00;;;22.80;56.90;;;;;;5034247;28;20406;-64
2021/09/18 03:14:25;;;;;;;1.40;0.95;;;22.70;56.50;;;;;;5034141;28;20444;-64
2021/09/18 03:16:50;;;;;;;1.27;1.00;;;22.80;56.80;;;;;;5034155;28;20391;-65
2021/09/18 03:19:16;;;;;;;1.33;0.95;;;22.80;56.50;;;;;;5034189;28;20765;-64
2021/09/18 03:21:42;;;;;;;1.10;0.90;;;22.70;56.70;;;;;;5034223;28;20383;-65
2021/09/18 03:24:08;;;;;;;1.20;0.90;;;22.80;56.60;;;;;;5034073;28;20395;-65
2021/09/18 03:26:34;;;;;;;1.08;0.80;;;22.70;56.50;;;;;;5033550;28;20449;-64
2021/09/18 03:29:00;;;;;;;1.80;0.95;;;22.70;56.40;;;;;;5033934;28;20869;-65
2021/09/18 03:31:25;;;;;;;1.17;0.90;;;22.70;56.40;;;;;;5034073;28;20555;-64
2021/09/18 03:33:51;;;;;;;1.10;0.90;;;22.70;56.60;;;;;;5033940;28;20409;-64
2021/09/18 03:36:17;;;;;;;1.20;1.00;;;22.70;56.20;;;;;;5033720;28;20817;-64
2021/09/18 03:38:42;;;;;;;1.50;1.05;;;22.70;56.30;;;;;;5032036;28;20418;-64
2021/09/18 03:41:08;;;;;;;1.23;0.93;;;22.70;56.70;;;;;;5033794;28;20423;-64
2021/09/18 03:43:34;;;;;;;1.48;1.00;;;22.70;56.30;;;;;;5032514;28;20819;-64
2021/09/18 03:46:00;;;;;;;1.10;0.85;;;22.70;56.30;;;;;;5032296;28;20800;-64
2021/09/18 03:48:25;;;;;;;0.95;0.80;;;22.70;56.60;;;;;;5033493;28;20395;-64
2021/09/18 03:50:51;;;;;;;1.10;0.90;;;22.70;56.20;;;;;;5033346;28;20398;-64
2021/09/18 03:53:16;;;;;;;1.30;0.90;;;22.70;56.50;;;;;;5032219;28;20399;-64
2021/09/18 03:55:42;;;;;;;1.02;0.80;;;22.70;56.70;;;;;;5032746;28;20403;-64
2021/09/18 03:58:08;;;;;;;1.20;0.90;;;22.70;56.60;;;;;;5033312;28;20905;-64
2021/09/18 04:00:34;;;;;;;1.40;1.00;;;22.70;56.40;;;;;;5032940;28;20395;-64
2021/09/18 04:03:00;;;;;;;1.20;0.93;;;22.70;56.40;;;;;;5033291;28;20900;-65
2021/09/18 04:05:25;;;;;;;1.50;0.90;;;22.70;56.30;;;;;;5033116;28;20387;-64
2021/09/18 04:07:51;;;;;;;1.42;1.13;;;22.60;56.10;;;;;;5032676;28;20407;-65
2021/09/18 04:10:17;;;;;;;1.30;0.90;;;22.60;56.10;;;;;;5033190;28;20506;-64
2021/09/18 04:12:42;;;;;;;1.85;1.10;;;22.70;56.20;;;;;;5031600;28;20414;-64
2021/09/18 04:15:08;;;;;;;1.25;0.90;;;22.60;56.20;;;;;;5032862;28;20399;-64
2021/09/18 04:17:34;;;;;;;0.98;0.75;;;22.60;55.80;;;;;;5033099;28;20415;-65
2021/09/18 04:20:00;;;;;;;1.30;0.90;;;22.60;56.00;;;;;;5033052;28;20400;-64
2021/09/18 04:22:25;;;;;;;1.40;1.00;;;22.60;56.50;;;;;;5033040;28;20387;-65
2021/09/18 04:24:51;;;;;;;1.20;0.83;;;22.60;56.00;;;;;;5032727;28;20804;-64
2021/09/18 04:27:16;;;;;;;1.58;0.90;;;22.60;55.80;;;;;;5032822;28;20877;-64
2021/09/18 04:29:42;;;;;;;1.33;1.00;;;22.60;56.00;;;;;;5032903;28;20482;-65
2021/09/18 04:32:08;;;;;;;1.77;0.88;;;22.60;55.90;;;;;;5032866;28;20442;-64
2021/09/18 04:34:34;;;;;;;2.00;0.90;;;22.60;56.30;;;;;;5032324;28;20865;-64
2021/09/18 04:36:59;;;;;;;1.30;0.90;;;22.60;56.20;;;;;;5032552;28;20431;-64
2021/09/18 04:39:25;;;;;;;1.30;0.90;;;22.60;55.70;;;;;;5032684;28;20399;-64
2021/09/18 04:41:51;;;;;;;1.55;1.00;;;22.60;56.00;;;;;;5032683;28;20445;-64
2021/09/18 04:44:17;;;;;;;1.73;0.97;;;22.60;56.00;;;;;;5032469;28;20808;-64
2021/09/18 04:46:42;;;;;;;2.08;1.00;;;22.50;56.00;;;;;;5032233;28;20391;-64
2021/09/18 04:49:10;;;;;;;1.07;0.90;;;22.60;55.90;;;;;;5032400;28;20426;-64
2021/09/18 04:51:36;;;;;;;1.30;1.00;;;22.60;55.90;;;;;;5032557;28;20441;-64
2021/09/18 04:54:02;;;;;;;1.40;0.97;;;22.50;56.10;;;;;;5032436;28;20470;-64
2021/09/18 04:56:28;;;;;;;1.30;1.00;;;22.50;56.30;;;;;;5032132;28;20402;-64
2021/09/18 04:58:53;;;;;;;1.15;0.95;;;22.60;55.80;;;;;;5032031;28;20414;-64
2021/09/18 05:01:19;;;;;;;1.13;0.93;;;22.50;55.60;;;;;;5032442;28;20391;-64
2021/09/18 05:03:45;;;;;;;1.83;1.02;;;22.60;55.60;;;;;;5032227;28;20873;-64
2021/09/18 05:06:10;;;;;;;1.30;0.95;;;22.60;55.60;;;;;;5032128;28;20729;-64
2021/09/18 05:08:36;;;;;;;1.23;0.87;;;22.60;55.70;;;;;;5031594;28;20418;-65
2021/09/18 05:11:02;;;;;;;1.92;0.82;;;22.50;55.30;;;;;;5032111;28;20736;-64
2021/09/18 05:13:27;;;;;;;1.10;0.80;;;22.50;55.50;;;;;;5032103;28;21003;-64
2021/09/18 05:15:53;;;;;;;1.60;1.00;;;22.50;56.00;;;;;;5032013;28;20395;-64
2021/09/18 05:18:19;;;;;;;1.40;1.00;;;22.50;55.80;;;;;;5031254;28;20419;-64
2021/09/18 05:20:44;;;;;;;1.10;0.70;;;22.50;55.70;;;;;;5031415;28;20410;-64
2021/09/18 05:23:10;;;;;;;1.17;0.90;;;22.50;56.20;;;;;;5031002;28;20403;-64
2021/09/18 05:25:36;;;;;;;1.35;1.02;;;22.50;55.80;;;;;;5031413;28;20399;-64
2021/09/18 05:28:01;;;;;;;1.33;1.00;;;22.50;56.10;;;;;;5031355;28;20932;-64
2021/09/18 05:30:27;;;;;;;1.63;1.00;;;22.50;55.70;;;;;;5031529;28;20395;-65
2021/09/18 05:32:53;;;;;;;1.40;1.00;;;22.50;55.80;;;;;;5031446;28;20474;-64
2021/09/18 05:35:18;;;;;;;1.77;1.20;;;22.50;55.80;;;;;;5031541;28;20395;-64
2021/09/18 05:37:44;;;;;;;1.27;0.90;;;22.50;55.80;;;;;;5031475;28;20446;-64
2021/09/18 05:40:10;;;;;;;1.30;1.00;;;22.50;55.80;;;;;;5031463;28;20418;-64
2021/09/18 05:42:37;;;;;;;1.30;0.82;;;22.50;55.70;;;;;;5031217;28;20813;-64
2021/09/18 05:45:04;;;;;;;1.80;1.00;;;22.50;55.80;;;;;;5031453;28;20399;-64
2021/09/18 05:47:30;;;;;;;3.05;1.00;;;22.50;55.90;;;;;;5031528;28;20402;-64
2021/09/18 05:49:56;;;;;;;2.35;1.05;;;22.50;56.50;;;;;;5031455;28;20419;-77
2021/09/18 05:52:22;;;;;;;2.60;0.97;;;22.50;55.60;;;;;;5031965;28;20398;-64
2021/09/18 05:54:47;;;;;;;1.98;1.20;;;22.40;55.40;;;;;;5031058;28;20881;-65
2021/09/18 05:57:13;;;;;;;2.00;1.10;;;22.50;55.70;;;;;;5031201;28;20461;-64
2021/09/18 05:59:39;;;;;;;2.25;1.17;;;22.50;55.10;;;;;;5031732;28;20403;-69
2021/09/18 06:02:04;;;;;;;3.80;1.20;;;22.50;55.30;;;;;;5031522;28;20413;-64
2021/09/18 06:04:30;;;;;;;3.38;1.20;;;22.40;54.40;;;;;;5030200;28;20403;-64
2021/09/18 06:06:55;;;;;;;2.10;1.40;;;22.40;54.80;;;;;;5030112;28;20407;-65
2021/09/18 06:09:21;;;;;;;1.80;1.30;;;22.40;54.40;;;;;;5031323;28;20479;-65
2021/09/18 06:11:47;;;;;;;2.30;1.70;;;22.40;54.20;;;;;;5031334;28;20398;-64
2021/09/18 06:14:13;;;;;;;2.47;1.40;;;22.40;54.30;;;;;;5031364;28;20897;-64
2021/09/18 06:16:38;;;;;;;2.30;1.30;;;22.30;53.90;;;;;;5030729;28;20814;-64
2021/09/18 06:19:04;;;;;;;2.20;1.20;;;22.30;53.60;;;;;;5031072;28;20415;-64
2021/09/18 06:21:30;;;;;;;2.30;1.08;;;22.30;53.40;;;;;;5031606;28;20525;-70
2021/09/18 06:23:55;;;;;;;2.00;1.27;;;22.30;53.80;;;;;;5031105;28;20919;-64
2021/09/18 06:26:21;;;;;;;3.42;1.50;;;22.20;53.80;;;;;;5031270;28;20478;-64
2021/09/18 06:28:47;;;;;;;2.57;1.47;;;22.20;53.60;;;;;;5030801;28;20406;-64
2021/09/18 06:31:12;;;;;;;3.28;1.52;;;22.20;53.40;;;;;;5033980;28;20398;-64
2021/09/18 06:33:38;;;;;;;2.10;1.40;;;22.20;53.40;;;;;;5035148;28;20887;-64
2021/09/18 06:36:04;;;;;;;2.00;1.40;;;22.20;53.50;;;;;;5005259;28;20384;-66
2021/09/18 06:38:30;;;;;;;3.35;1.30;;;22.20;53.60;;;;;;5039342;28;20450;-66
2021/09/18 06:40:56;;;;;;;3.00;1.40;;;22.20;53.20;;;;;;5034732;28;20387;-64
2021/09/18 06:43:23;;;;;;;2.40;1.50;;;22.30;53.10;;;;;;5034970;28;20398;-64
2021/09/18 06:45:49;;;;;;;2.45;1.40;;;22.40;52.90;;;;;;5034971;28;20387;-65
2021/09/18 06:48:16;;;;;;;3.22;1.23;;;22.50;52.60;;;;;;5034844;28;20394;-65
2021/09/18 06:50:42;;;;;;;2.05;1.27;;;22.50;52.30;;;;;;5033580;28;20889;-65
2021/09/18 06:53:08;;;;;;;3.15;1.60;;;22.60;52.50;;;;;;5034452;28;20453;-65
2021/09/18 06:55:35;;;;;;;3.10;1.40;;;22.50;52.20;;;;;;5034896;28;20402;-66
2021/09/18 06:58:01;;;;;;;1.80;1.30;;;22.60;52.30;;;;;;5034604;28;20514;-64
2021/09/18 07:00:28;;;;;;;3.58;1.40;;;22.60;52.10;;;;;;5034773;28;20605;-65
2021/09/18 07:02:54;;;;;;;4.05;1.40;;;22.60;51.80;;;;;;5034054;28;20907;-65
2021/09/18 07:05:19;;;;;;;3.20;1.35;;;22.70;52.20;;;;;;5033291;28;20399;-64
2021/09/18 07:07:45;;;;;;;3.33;1.30;;;22.60;51.90;;;;;;5034540;28;20403;-66
2021/09/18 07:10:12;;;;;;;1.77;1.40;;;22.70;51.90;;;;;;5034723;28;20399;-71
2021/09/18 07:12:39;;;;;;;3.38;1.50;;;22.70;51.80;;;;;;5034097;28;20752;-65
2021/09/18 07:15:05;;;;;;;3.28;1.40;;;22.80;52.20;;;;;;5034398;28;20604;-65
2021/09/18 07:17:31;;;;;;;2.33;1.38;;;22.80;52.30;;;;;;5034378;28;20414;-65
2021/09/18 07:19:58;;;;;;;5.00;1.40;;;22.80;51.90;;;;;;5034181;28;20415;-64
2021/09/18 07:22:27;;;;;;;3.60;1.33;;;22.90;52.70;;;;;;5034394;28;20395;-66
2021/09/18 07:24:53;;;;;;;3.55;1.40;;;23.00;52.10;;;;;;5033861;28;20427;-68
2021/09/18 07:27:19;;;;;;;3.43;1.33;;;23.00;51.90;;;;;;5034198;28;20486;-64
2021/09/18 07:29:45;;;;;;;2.28;1.30;;;23.00;51.70;;;;;;5034223;28;20478;-64
2021/09/18 07:32:11;;;;;;;3.70;1.60;;;23.10;51.80;;;;;;5034050;28;20403;-65
2021/09/18 07:34:37;;;;;;;3.22;1.50;;;23.10;51.70;;;;;;5033478;28;20465;-65
2021/09/18 07:37:03;;;;;;;2.58;1.40;;;23.10;51.60;;;;;;5034024;28;20387;-64
2021/09/18 07:39:30;;;;;;;2.70;1.30;;;23.20;51.60;;;;;;5034065;28;20962;-64
2021/09/18 07:41:57;;;;;;;1.80;1.00;;;23.20;51.60;;;;;;5033112;28;20397;-65
2021/09/18 07:44:23;;;;;;;1.70;1.13;;;23.30;51.50;;;;;;5033940;28;20391;-66
2021/09/18 07:46:48;;;;;;;2.20;1.30;;;23.30;51.50;;;;;;5033463;28;20433;-66
2021/09/18 07:49:14;;;;;;;1.63;1.10;;;23.30;51.50;;;;;;5033872;28;20394;-64
2021/09/18 07:51:40;;;;;;;2.17;1.10;;;23.30;51.50;;;;;;5033990;28;20470;-65
2021/09/18 07:54:06;;;;;;;2.55;1.20;;;23.40;51.60;;;;;;5033723;28;20388;-64
2021/09/18 07:56:32;;;;;;;2.70;1.23;;;23.40;51.60;;;;;;5033687;28;20486;-64
2021/09/18 07:58:57;;;;;;;2.10;1.30;;;23.40;51.60;;;;;;5033286;28;20577;-64
2021/09/18 08:01:27;;;;;;;1.60;1.13;;;23.40;51.70;;;;;;5031736;28;20387;-65
2021/09/18 08:03:58;;;;;;;2.10;1.23;;;23.40;51.90;;;;;;5033080;28;20541;-67
2021/09/18 08:06:24;;;;;;;2.15;1.05;;;23.30;52.00;;;;;;5033659;28;20417;-64
2021/09/18 08:08:50;;;;;;;1.67;1.10;;;23.20;52.30;;;;;;5033084;28;21079;-65
2021/09/18 08:11:19;;;;;;;1.40;1.00;;;23.20;52.20;;;;;;5032181;28;20482;-64
2021/09/18 08:13:45;;;;;;;2.20;1.20;;;23.20;52.20;;;;;;5033402;28;20385;-64
2021/09/18 08:16:11;;;;;;;2.50;1.20;;;23.30;52.10;;;;;;5033342;28;20765;-64
2021/09/18 08:18:36;;;;;;;1.65;1.13;;;23.30;52.30;;;;;;5033053;28;20419;-64
2021/09/18 08:21:03;;;;;;;1.67;1.20;;;23.20;52.30;;;;;;5033051;28;20387;-65
2021/09/18 08:23:29;;;;;;;2.50;1.38;;;23.20;52.40;;;;;;5033322;28;20441;-64
2021/09/18 08:25:55;;;;;;;1.40;1.00;;;23.20;52.60;;;;;;5033053;28;20395;-64
2021/09/18 08:28:20;;;;;;;2.80;1.30;;;23.30;52.80;;;;;;5033167;28;20506;-64
2021/09/18 08:30:46;;;;;;;1.77;1.10;;;23.30;52.60;;;;;;5032530;28;20456;-66
2021/09/18 08:33:12;;;;;;;2.28;1.23;;;23.30;52.50;;;;;;5032938;28;20746;-65
2021/09/18 08:35:37;;;;;;;1.80;1.30;;;23.30;52.50;;;;;;5031664;28;20742;-64
2021/09/18 08:38:03;;;;;;;3.00;1.40;;;23.30;52.80;;;;;;5032709;28;20410;-65
2021/09/18 08:40:35;;;;;;;1.70;1.20;;;23.30;52.80;;;;;;5032857;28;20769;-64
2021/09/18 08:43:00;;;;;;;3.27;1.40;;;23.30;53.00;;;;;;5032754;28;20433;-76
2021/09/18 08:45:26;;;;;;;5.32;1.50;;;23.40;52.80;;;;;;5032857;28;20395;-64
2021/09/18 08:47:52;;;;;;;5.27;1.50;;;23.40;52.80;;;;;;5032874;28;20406;-67
2021/09/18 08:50:20;;;;;;;3.05;1.42;;;23.40;53.30;;;;;;5033430;28;20879;-65
2021/09/18 08:52:46;;;;;;;2.35;1.38;;;23.40;53.50;;;;;;5032347;28;20888;-65
2021/09/18 08:55:13;;;;;;;5.15;1.48;;;23.30;53.30;;;;;;5032638;28;20860;-66
2021/09/18 08:57:40;;;;;;;3.25;1.35;;;23.40;54.30;;;;;;5032482;28;20415;-65
2021/09/18 09:00:07;;;;;;;3.45;1.45;;;23.50;54.10;;;;;;5032342;28;20473;-79
2021/09/18 09:02:34;;;;;;;4.28;1.58;;;23.50;53.20;;;;;;5032499;28;20485;-66
2021/09/18 09:05:17;;;;;;;4.25;1.50;;;23.50;53.70;;;;;;5031286;28;20449;-65
2021/09/18 09:08:07;;;;;;;2.42;1.50;;;23.40;53.70;;;;;;5032339;28;20876;-65
2021/09/18 09:10:34;;;;;;;3.45;1.40;;;23.40;53.60;;;;;;5032498;28;20873;-64
2021/09/18 09:13:06;;;;;;;3.67;1.60;;;23.40;54.00;;;;;;5031677;28;20391;-65
2021/09/18 09:15:33;;;;;;;3.45;1.48;;;23.50;53.60;;;;;;5032241;28;20888;-66
2021/09/18 09:18:16;;;;;;;2.67;1.40;;;23.50;53.30;;;;;;5033158;28;20447;-64
2021/09/18 09:20:42;;;;;;;2.80;1.50;;;23.50;52.70;;;;;;5031854;28;20386;-66
2021/09/18 09:23:19;;;;;;;5.78;1.60;;;23.50;52.60;;;;;;5032229;28;20405;-71
2021/09/18 09:25:49;;;;;;;3.42;1.35;;;23.40;52.80;;;;;;5032226;28;20387;-65
2021/09/18 09:28:30;;;;;;;3.05;1.50;;;23.40;52.90;;;;;;5032092;28;20394;-65
2021/09/18 09:31:14;;;;;;;3.70;1.40;;;23.30;52.10;;;;;;5031484;28;20772;-64
2021/09/18 09:34:11;;;;;;;3.90;1.70;;;23.20;52.20;;;;;;5031987;28;20402;-64
2021/09/18 09:36:49;;;;;;;3.78;1.80;;;23.30;52.80;;;;;;5031563;28;20927;-65
2021/09/18 09:39:27;;;;;;;3.25;1.67;;;23.20;52.50;;;;;;5031755;28;20911;-64
2021/09/18 09:41:57;;;;;;;2.10;1.80;;;23.20;52.20;;;;;;5031649;28;20761;-65
2021/09/18 09:44:26;;;;;;;3.00;1.90;;;23.20;51.80;;;;;;5031835;28;20387;-65
2021/09/18 09:47:11;;;;;;;4.43;1.70;;;23.20;52.10;;;;;;5031086;28;20758;-64
2021/09/18 09:49:44;;;;;;;2.60;1.50;;;23.20;51.80;;;;;;5031663;28;20397;-65
2021/09/18 09:52:19;;;;;;;4.22;1.67;;;23.10;51.80;;;;;;5031611;28;20753;-65
2021/09/18 09:54:44;;;;;;;2.97;1.45;;;23.10;51.90;;;;;;5031171;28;20383;-64
2021/09/18 09:57:13;;;;;;;2.55;1.60;;;23.10;51.70;;;;;;5031494;28;20395;-64
2021/09/18 09:59:39;;;;;;;2.47;1.67;;;23.10;51.80;;;;;;5031566;28;20450;-64
2021/09/18 10:02:11;;;;;;;2.85;1.65;;;23.10;51.70;;;;;;5024084;28;20956;-64
2021/09/18 10:04:37;;;;;;;3.97;1.50;;;23.10;51.80;;;;;;5016882;28;20537;-65
2021/09/18 10:07:04;;;;;;;3.15;1.50;;;23.10;51.60;;;;;;5027585;28;20419;-66
2021/09/18 10:09:30;;;;;;;3.65;1.40;;;23.10;51.20;;;;;;5029037;28;20383;-64
2021/09/18 10:11:57;;;;;;;3.25;1.45;;;23.10;51.40;;;;;;5029015;28;20430;-64
2021/09/18 10:14:28;;;;;;;2.80;1.58;;;23.10;51.70;;;;;;5029663;28;20403;-65
2021/09/18 10:16:56;;;;;;;3.13;1.40;;;23.10;51.30;;;;;;5026580;28;20502;-64
2021/09/18 10:19:54;;;;;;;2.92;1.50;;;23.00;51.20;;;;;;5029048;28;20502;-68
2021/09/18 10:25:19;;;;;;;2.80;1.30;;;23.00;51.30;;;;;;5031435;28;20386;-80
2021/09/18 10:28:14;;;;;;;3.17;1.50;;;23.10;51.40;;;;;;5029199;28;20462;-68
2021/09/18 10:30:51;;;;;;;3.55;1.63;;;23.00;51.40;;;;;;5028642;28;20437;-68
2021/09/18 10:33:37;;;;;;;5.00;1.45;;;23.00;51.60;;;;;;5030059;28;20865;-64
2021/09/18 10:36:06;;;;;;;2.00;1.30;;;23.00;51.50;;;;;;5023495;28;20388;-65
2021/09/18 10:38:34;;;;;;;3.08;1.10;;;23.00;51.50;;;;;;5029252;28;20422;-64
2021/09/18 10:41:04;;;;;;;4.53;1.35;;;23.00;50.50;;;;;;5028758;28;20814;-64
2021/09/18 10:43:36;;;;;;;5.05;1.33;;;23.00;51.40;;;;;;5029004;28;20409;-64
2021/09/18 10:46:06;;;;;;;2.75;1.10;;;23.00;51.20;;;;;;5027144;28;20476;-64
2021/09/18 10:48:50;;;;;;;2.65;1.40;;;23.00;51.40;;;;;;5027774;28;20768;-65
2021/09/18 10:51:33;;;;;;;4.18;1.55;;;23.00;51.40;;;;;;5023605;28;20406;-64
2021/09/18 10:54:12;;;;;;;5.20;1.40;;;23.00;52.20;;;;;;5022439;28;20403;-68
2021/09/18 10:56:58;;;;;;;6.10;1.67;;;23.00;53.30;;;;;;5029248;28;20433;-68
2021/09/18 10:59:43;;;;;;;4.05;1.50;;;23.10;53.80;;;;;;5026558;28;20947;-64
2021/09/18 11:02:34;;;;;;;3.50;1.60;;;23.10;53.30;;;;;;5024863;28;20406;-77
2021/09/18 11:05:04;;;;;;;4.13;1.60;;;23.10;53.30;;;;;;5028577;28;21107;-75
2021/09/18 11:07:48;;;;;;;6.72;1.60;;;23.10;53.50;;;;;;5028952;28;21093;-65
2021/09/18 11:10:34;;;;;;;5.32;1.67;;;23.10;53.40;;;;;;5029015;28;20453;-64
2021/09/18 11:13:09;;;;;;;5.10;1.60;;;23.10;53.30;;;;;;5017346;28;20488;-65
2021/09/18 11:15:48;;;;;;;3.58;1.60;;;23.10;53.80;;;;;;5030040;28;20395;-64
2021/09/18 11:18:35;;;;;;;5.35;1.40;;;23.10;53.70;;;;;;5033129;28;20473;-64
2021/09/18 11:21:10;;;;;;;4.03;1.40;;;23.10;53.70;;;;;;5033874;28;20734;-64
2021/09/18 11:23:38;;;;;;;7.40;1.80;;;23.10;54.10;;;;;;5034308;28;20416;-64
2021/09/18 11:26:33;;;;;;;6.25;1.80;;;23.20;54.00;;;;;;5034313;28;20485;-64
2021/09/18 11:29:10;;;;;;;5.28;1.60;;;23.20;54.00;;;;;;5033664;28;20395;-64
2021/09/18 11:31:51;;;;;;;3.90;1.60;;;23.20;54.30;;;;;;5034226;28;20395;-66
2021/09/18 11:34:17;;;;;;;3.42;1.58;;;23.20;54.10;;;;;;5034743;28;20387;-64
2021/09/18 11:36:44;;;;;;;2.83;1.50;;;23.20;53.90;;;;;;5033904;28;20486;-65
2021/09/18 11:39:10;;;;;;;3.67;1.30;;;23.20;53.10;;;;;;5033555;28;20425;-65
2021/09/18 11:41:35;;;;;;;2.72;1.50;;;23.20;53.00;;;;;;5034006;28;20387;-64
2021/09/18 11:44:11;;;;;;;3.97;1.40;;;23.20;52.70;;;;;;5034046;28;20387;-68
2021/09/18 11:46:38;;;;;;;3.63;1.58;;;23.20;52.70;;;;;;5032192;28;20812;-65
2021/09/18 11:49:06;;;;;;;3.10;1.63;;;23.30;52.50;;;;;;5029882;28;20426;-74
2021/09/18 11:51:33;;;;;;;2.38;1.67;;;23.30;52.20;;;;;;5033055;28;20909;-64
2021/09/18 11:54:00;;;;;;;2.38;1.33;;;23.30;52.50;;;;;;5033046;28;20426;-65
2021/09/18 11:56:26;;;;;;;3.65;2.40;;;23.40;52.60;;;;;;5032641;28;20390;-65
2021/09/18 11:58:52;;;;;;;2.85;2.20;;;23.40;55.30;;;;;;5032039;28;20419;-65
2021/09/18 12:01:17;;;;;;;5.40;1.70;;;23.50;55.60;;;;;;5032754;28;21193;-64
2021/09/18 12:03:46;;;;;;;2.85;1.60;;;23.50;56.00;;;;;;5027671;28;20407;-80
2021/09/18 12:06:14;;;;;;;2.28;1.40;;;23.50;55.70;;;;;;5033599;28;20398;-81
2021/09/18 12:08:42;;;;;;;2.58;1.50;;;23.50;55.60;;;;;;5033124;28;20441;-65
2021/09/18 12:11:08;;;;;;;2.20;1.13;;;23.50;55.10;;;;;;5033166;28;21290;-65
2021/09/18 12:13:44;;;;;;;4.00;2.10;;;23.60;54.50;;;;;;5033165;28;20403;-67
2021/09/18 12:16:11;;;;;;;3.80;2.00;;;23.60;55.70;;;;;;5020381;28;20484;-64
2021/09/18 12:18:40;;;;;;;3.55;2.30;;;23.70;56.20;;;;;;5032983;28;20415;-65
2021/09/18 12:21:12;;;;;;;4.85;1.73;;;23.70;58.20;;;;;;5024719;28;20869;-65
2021/09/18 12:23:48;;;;;;;4.67;2.20;;;23.80;58.20;;;;;;5032787;28;20391;-65
2021/09/18 12:26:18;;;;;;;3.70;1.90;;;23.90;59.20;;;;;;5032739;28;20399;-69
2021/09/18 12:28:44;;;;;;;4.53;1.80;;;23.90;58.30;;;;;;5029351;28;20598;-67
2021/09/18 12:31:22;;;;;;;4.90;1.60;;;23.90;58.20;;;;;;5032388;28;20387;-67
2021/09/18 12:33:51;;;;;;;4.07;1.30;;;24.00;58.20;;;;;;5032078;28;20426;-67
2021/09/18 12:36:23;;;;;;;6.30;1.60;;;24.00;57.90;;;;;;5031709;28;20452;-64
2021/09/18 12:38:49;;;;;;;4.28;1.67;;;24.00;58.20;;;;;;5031380;28;20430;-65
2021/09/18 12:41:21;;;;;;;9.00;1.73;;;24.10;59.10;;;;;;5032544;28;20415;-66
2021/09/18 12:44:12;;;;;;;5.70;1.60;;;24.20;59.10;;;;;;5032416;28;20396;-76
2021/09/18 12:46:48;;;;;;;4.80;1.50;;;24.20;57.80;;;;;;5026255;28;20397;-65
2021/09/18 12:49:15;;;;;;;4.20;1.52;;;24.20;57.10;;;;;;5025422;28;20391;-65
2021/09/18 12:51:45;;;;;;;5.65;1.48;;;24.20;57.00;;;;;;5030989;28;20418;-69
2021/09/18 12:54:16;;;;;;;2.33;1.30;;;24.20;56.70;;;;;;5030312;28;20395;-65
2021/09/18 12:56:44;;;;;;;4.35;1.42;;;24.10;55.70;;;;;;5030866;28;20387;-65